createdAt,value
2022-11-16T00:02:12.288Z,100782.00
2022-11-16T00:04:38.971Z,100783.03
2022-11-16T00:07:05.561Z,100769.59
2022-11-16T00:09:32.447Z,100770.66
2022-11-16T00:12:00.001Z,100767.94
2022-11-16T00:14:27.591Z,100755.31
2022-11-16T00:16:53.991Z,100768.09
2022-11-16T00:19:20.361Z,100759.28
2022-11-16T00:21:46.956Z,100770.16
2022-11-16T00:24:14.288Z,100757.72
2022-11-16T00:26:40.793Z,100754.34
2022-11-16T00:29:07.259Z,100761.69
2022-11-16T00:31:33.595Z,100742.78
2022-11-16T00:33:59.927Z,100749.28
2022-11-16T00:36:26.303Z,100739.44
2022-11-16T00:38:55.703Z,100738.59
2022-11-16T00:41:22.169Z,100737.56
2022-11-16T00:43:48.777Z,100731.06
2022-11-16T00:46:15.201Z,100731.25
2022-11-16T00:48:41.632Z,100731.44
2022-11-16T00:51:08.092Z,100733.16
2022-11-16T00:53:35.172Z,100743.16
2022-11-16T00:56:01.507Z,100737.06
2022-11-16T00:58:28.189Z,100735.38
2022-11-16T01:00:54.808Z,100740.63
2022-11-16T01:03:21.243Z,100740.63
2022-11-16T01:05:47.622Z,100736.88
2022-11-16T01:08:14.097Z,100728.22
2022-11-16T01:10:41.159Z,100732.81
2022-11-16T01:13:07.757Z,100734.72
2022-11-16T01:15:34.106Z,100729.09
2022-11-16T01:18:00.468Z,100729.25
2022-11-16T01:20:28.120Z,100730.31
2022-11-16T01:22:54.575Z,100728.63
2022-11-16T01:25:21.121Z,100715.84
2022-11-16T01:27:47.561Z,100712.66
2022-11-16T01:30:14.437Z,100722.88
2022-11-16T01:32:40.835Z,100717.41
2022-11-16T01:35:07.562Z,100711.53
2022-11-16T01:37:34.136Z,100696.22
2022-11-16T01:40:00.698Z,100699.97
2022-11-16T01:42:27.826Z,100707.09
2022-11-16T01:45:01.897Z,100702.69
2022-11-16T01:47:28.661Z,100704.75
2022-11-16T01:49:58.463Z,100694.03
2022-11-16T01:52:26.745Z,100705.59
2022-11-16T01:54:54.193Z,100702.88
2022-11-16T01:57:23.408Z,100699.13
2022-11-16T01:59:52.646Z,100705.59
2022-11-16T02:02:19.186Z,100697.44
2022-11-16T02:04:47.659Z,100690.31
2022-11-16T02:07:29.461Z,100691.81
2022-11-16T02:10:05.083Z,100682.16
2022-11-16T02:12:50.345Z,100672.09
2022-11-16T02:15:27.155Z,100669.75
2022-11-16T02:18:08.616Z,100668.53
2022-11-16T02:20:43.822Z,100670.03
2022-11-16T02:23:10.168Z,100673.59
2022-11-16T02:25:36.632Z,100669.88
2022-11-16T02:28:23.227Z,100669.00
2022-11-16T02:30:52.517Z,100659.81
2022-11-16T02:33:22.102Z,100661.50
2022-11-16T02:35:50.776Z,100655.22
2022-11-16T02:38:25.192Z,100655.22
2022-11-16T02:40:53.685Z,100660.66
2022-11-16T02:43:26.496Z,100655.22
2022-11-16T02:45:55.416Z,100656.91
2022-11-16T02:48:24.822Z,100657.94
2022-11-16T02:50:52.831Z,100658.78
2022-11-16T02:53:23.680Z,100657.09
2022-11-16T02:55:50.273Z,100645.38
2022-11-16T02:58:26.021Z,100644.34
2022-11-16T03:01:00.397Z,100642.44
2022-11-16T03:03:42.131Z,100637.22
2022-11-16T03:06:16.476Z,100637.22
2022-11-16T03:08:44.925Z,100634.00
2022-11-16T03:11:30.526Z,100640.09
2022-11-16T03:14:02.553Z,100642.66
2022-11-16T03:16:40.698Z,100644.13
2022-11-16T03:19:09.495Z,100633.94
2022-11-16T03:21:54.443Z,100638.13
2022-11-16T03:24:20.995Z,100632.53
2022-11-16T03:26:51.392Z,100623.47
2022-11-16T03:29:22.933Z,100637.09
2022-11-16T03:31:52.495Z,100622.84
2022-11-16T03:34:20.702Z,100625.56
2022-11-16T03:36:48.647Z,100631.00
2022-11-16T03:39:20.189Z,100623.47
2022-11-16T03:41:47.778Z,100626.19
2022-11-16T03:44:15.171Z,100620.75
2022-11-16T03:46:43.007Z,100616.34
2022-11-16T03:49:09.369Z,100622.00
2022-11-16T03:51:36.016Z,100621.81
2022-11-16T03:54:02.440Z,100619.06
2022-11-16T03:56:28.908Z,100614.69
2022-11-16T03:58:55.261Z,100610.28
2022-11-16T04:01:21.698Z,100610.28
2022-11-16T04:03:48.098Z,100613.00
2022-11-16T04:06:33.378Z,100606.72
2022-11-16T04:09:18.227Z,100607.91
2022-11-16T04:12:03.041Z,100606.25
2022-11-16T04:14:48.037Z,100600.97
2022-11-16T04:17:33.800Z,100602.84
2022-11-16T04:20:18.589Z,100603.69
2022-11-16T04:23:23.752Z,100607.44
2022-11-16T04:25:51.087Z,100605.56
2022-11-16T04:28:19.686Z,100595.53
2022-11-16T04:31:09.392Z,100600.78
2022-11-16T04:33:54.154Z,100615.59
2022-11-16T04:36:39.528Z,100605.97
2022-11-16T04:39:06.118Z,100607.63
2022-11-16T04:41:51.220Z,100609.13
2022-11-16T04:44:17.785Z,100597.41
2022-11-16T04:47:02.863Z,100608.47
2022-11-16T04:49:29.213Z,100602.00
2022-11-16T04:51:55.658Z,100606.59
2022-11-16T04:54:22.168Z,100607.44
2022-11-16T04:56:48.560Z,100610.16
2022-11-16T04:59:14.972Z,100591.97
2022-11-16T05:01:59.901Z,100593.00
2022-11-16T05:04:26.246Z,100589.44
2022-11-16T05:06:52.627Z,100587.91
2022-11-16T05:09:19.040Z,100584.34
2022-11-16T05:11:45.463Z,100574.72
2022-11-16T05:14:11.920Z,100570.94
2022-11-16T05:16:38.350Z,100581.84
2022-11-16T05:19:23.532Z,100579.47
2022-11-16T05:21:49.968Z,100572.53
2022-11-16T05:24:34.769Z,100581.72
2022-11-16T05:27:01.952Z,100577.53
2022-11-16T05:29:28.322Z,100581.44
2022-11-16T05:31:54.789Z,100577.91
2022-11-16T05:34:21.188Z,100578.94
2022-11-16T05:36:47.621Z,100579.78
2022-11-16T05:39:14.119Z,100577.22
2022-11-16T05:41:40.529Z,100580.97
2022-11-16T05:44:06.872Z,100573.84
2022-11-16T05:46:33.296Z,100582.00
2022-11-16T05:48:59.820Z,100587.25
2022-11-16T05:51:26.271Z,100583.91
2022-11-16T05:53:52.662Z,100587.66
2022-11-16T05:56:19.095Z,100587.47
2022-11-16T05:58:46.232Z,100587.47
2022-11-16T06:01:12.627Z,100595.63
2022-11-16T06:03:39.065Z,100589.34
2022-11-16T06:06:05.547Z,100582.22
2022-11-16T06:08:32.348Z,100584.94
2022-11-16T06:11:05.656Z,100582.59
2022-11-16T06:13:32.391Z,100588.88
2022-11-16T06:15:58.980Z,100588.88
2022-11-16T06:18:25.464Z,100584.25
2022-11-16T06:20:52.230Z,100588.66
2022-11-16T06:23:18.688Z,100584.47
2022-11-16T06:25:45.095Z,100590.53
2022-11-16T06:28:11.550Z,100589.22
2022-11-16T06:30:38.456Z,100585.03
2022-11-16T06:33:05.371Z,100604.91
2022-11-16T06:35:32.101Z,100580.78
2022-11-16T06:37:58.799Z,100589.97
2022-11-16T06:40:25.702Z,100587.44
2022-11-16T06:42:52.185Z,100593.91
2022-11-16T06:45:18.530Z,100601.88
2022-11-16T06:47:45.027Z,100600.19
2022-11-16T06:50:11.432Z,100602.06
2022-11-16T06:52:37.801Z,100618.38
2022-11-16T06:55:04.378Z,100603.47
2022-11-16T06:57:30.728Z,100610.78
2022-11-16T06:59:57.541Z,100607.88
2022-11-16T07:02:23.962Z,100606.84
2022-11-16T07:04:50.309Z,100602.06
2022-11-16T07:07:16.798Z,100593.91
2022-11-16T07:09:44.569Z,100597.00
2022-11-16T07:12:10.987Z,100605.13
2022-11-16T07:14:37.453Z,100621.47
2022-11-16T07:17:09.156Z,100615.44
2022-11-16T07:19:36.809Z,100620.00
2022-11-16T07:22:04.226Z,100624.44
2022-11-16T07:24:30.738Z,100626.31
2022-11-16T07:26:57.344Z,100629.03
2022-11-16T07:29:24.581Z,100619.69
2022-11-16T07:31:51.142Z,100629.69
2022-11-16T07:34:17.629Z,100626.97
2022-11-16T07:36:44.243Z,100636.00
2022-11-16T07:39:10.672Z,100630.56
2022-11-16T07:41:38.492Z,100623.59
2022-11-16T07:44:09.535Z,100631.06
2022-11-16T07:46:46.726Z,100626.50
2022-11-16T07:49:15.115Z,100628.56
2022-11-16T07:51:41.563Z,100628.75
2022-11-16T07:54:08.274Z,100630.44
2022-11-16T07:56:34.777Z,100630.78
2022-11-16T07:59:01.566Z,100626.38
2022-11-16T08:01:27.954Z,100633.00
2022-11-16T08:03:54.489Z,100635.72
2022-11-16T08:06:22.879Z,100642.88
2022-11-16T08:08:52.432Z,100637.78
2022-11-16T08:11:23.583Z,100643.22
2022-11-16T08:13:49.965Z,100640.69
2022-11-16T08:16:17.569Z,100643.56
2022-11-16T08:18:44.023Z,100651.06
2022-11-16T08:21:11.939Z,100647.31
2022-11-16T08:23:40.298Z,100633.72
2022-11-16T08:26:07.930Z,100640.19
2022-11-16T08:28:34.634Z,100629.50
2022-11-16T08:31:07.632Z,100633.94
2022-11-16T08:33:34.002Z,100641.19
2022-11-16T08:36:07.072Z,100645.63
2022-11-16T08:38:36.062Z,100643.91
2022-11-16T08:41:02.654Z,100639.53
2022-11-16T08:43:31.024Z,100642.44
2022-11-16T08:45:58.342Z,100643.25
2022-11-16T08:48:24.781Z,100640.75
2022-11-16T08:51:15.990Z,100645.13
2022-11-16T08:53:37.478Z,100648.88
2022-11-16T08:56:05.353Z,100654.13
2022-11-16T08:58:32.083Z,100641.59
2022-11-16T09:00:58.596Z,100640.75
2022-11-16T09:03:25.045Z,100646.16
2022-11-16T09:05:52.488Z,100639.88
2022-11-16T09:08:18.834Z,100641.94
2022-11-16T09:10:45.191Z,100644.84
2022-11-16T09:13:11.528Z,100644.66
2022-11-16T09:15:38.020Z,100644.47
2022-11-16T09:18:04.421Z,100643.81
2022-11-16T09:20:30.792Z,100647.38
2022-11-16T09:22:57.317Z,100646.53
2022-11-16T09:25:23.661Z,100639.22
2022-11-16T09:27:50.036Z,100641.09
2022-11-16T09:30:17.536Z,100643.13
2022-11-16T09:32:43.904Z,100633.97
2022-11-16T09:35:10.261Z,100627.66
2022-11-16T09:37:36.622Z,100626.81
2022-11-16T09:40:03.488Z,100616.81
2022-11-16T09:42:45.012Z,100616.81
2022-11-16T09:45:17.572Z,100618.69
2022-11-16T09:47:49.094Z,100614.09
2022-11-16T09:50:21.595Z,100617.69
2022-11-16T09:52:49.878Z,100608.66
2022-11-16T09:55:24.319Z,100622.44
2022-11-16T09:57:52.501Z,100601.72
2022-11-16T10:00:22.712Z,100614.28
2022-11-16T10:03:02.587Z,100611.91
2022-11-16T10:05:47.675Z,100615.84
2022-11-16T10:08:33.503Z,100616.00
2022-11-16T10:11:06.562Z,100607.22
2022-11-16T10:13:48.159Z,100593.81
2022-11-16T10:16:20.769Z,100597.72
2022-11-16T10:18:53.884Z,100584.16
2022-11-16T10:21:30.103Z,100576.84
2022-11-16T10:24:05.560Z,100575.66
2022-11-16T10:26:41.271Z,100559.72
2022-11-16T10:29:36.950Z,100565.16
2022-11-16T10:32:28.271Z,100570.94
2022-11-16T10:34:56.332Z,100574.88
2022-11-16T10:37:28.181Z,100566.03
2022-11-16T10:39:54.636Z,100560.78
2022-11-16T10:42:30.898Z,100564.50
2022-11-16T10:45:02.721Z,100559.09
2022-11-16T10:47:36.820Z,100562.19
2022-11-16T10:50:14.430Z,100579.47
2022-11-16T10:52:40.799Z,100557.75
2022-11-16T10:55:07.382Z,100568.75
2022-11-16T10:57:53.669Z,100550.78
2022-11-16T11:00:55.563Z,100538.91
2022-11-16T11:03:30.317Z,100546.75
2022-11-16T11:05:56.842Z,100545.91
2022-11-16T11:08:30.594Z,100534.00
2022-11-16T11:11:01.586Z,100566.41
2022-11-16T11:13:28.064Z,100544.88
2022-11-16T11:16:13.232Z,100532.50
2022-11-16T11:18:39.590Z,100540.63
2022-11-16T11:21:07.462Z,100545.06
2022-11-16T11:23:51.268Z,100539.63
2022-11-16T11:26:30.564Z,100533.53
2022-11-16T11:29:01.920Z,100540.81
2022-11-16T11:31:54.542Z,100538.31
2022-11-16T11:34:26.102Z,100542.69
2022-11-16T11:36:52.450Z,100551.03
2022-11-16T11:39:19.009Z,100537.47
2022-11-16T11:41:46.437Z,100534.75
2022-11-16T11:44:12.779Z,100549.16
2022-11-16T11:47:23.630Z,100535.41
2022-11-16T11:49:34.680Z,100539.97
2022-11-16T11:52:17.184Z,100531.84
2022-11-16T11:54:46.753Z,100533.53
2022-11-16T11:57:20.627Z,100542.50
2022-11-16T11:59:47.119Z,100532.50
2022-11-16T12:02:16.295Z,100528.09
2022-11-16T12:05:10.328Z,100525.38
2022-11-16T12:07:39.647Z,100539.97
2022-11-16T12:10:29.001Z,100543.53
2022-11-16T12:13:03.646Z,100537.25
2022-11-16T12:15:38.976Z,100532.19
2022-11-16T12:18:11.413Z,100526.59
2022-11-16T12:20:40.990Z,100524.88
2022-11-16T12:23:26.197Z,100525.72
2022-11-16T12:26:11.462Z,100526.59
2022-11-16T12:28:37.916Z,100534.75
2022-11-16T12:31:16.738Z,100523.69
2022-11-16T12:33:48.081Z,100516.75
2022-11-16T12:36:17.492Z,100521.53
2022-11-16T12:38:49.906Z,100515.75
2022-11-16T12:41:35.247Z,100523.88
2022-11-16T12:44:02.076Z,100536.44
2022-11-16T12:46:47.337Z,100536.22
2022-11-16T12:49:27.269Z,100531.66
2022-11-16T12:52:19.900Z,100528.44
2022-11-16T12:55:25.374Z,100543.88
2022-11-16T12:57:57.471Z,100532.03
2022-11-16T13:00:23.825Z,100541.00
2022-11-16T13:02:53.431Z,100549.16
2022-11-16T13:05:21.674Z,100531.00
2022-11-16T13:07:50.524Z,100537.25
2022-11-16T13:10:20.105Z,100543.53
2022-11-16T13:12:49.398Z,100530.16
2022-11-16T13:15:19.821Z,100531.66
2022-11-16T13:17:50.128Z,100527.94
2022-11-16T13:20:22.719Z,100527.94
2022-11-16T13:23:07.810Z,100532.50
2022-11-16T13:25:51.279Z,100522.66
2022-11-16T13:28:23.459Z,100525.38
2022-11-16T13:31:04.572Z,100531.66
2022-11-16T13:33:41.705Z,100531.66
2022-11-16T13:36:49.253Z,100528.78
2022-11-16T13:39:21.897Z,100527.94
2022-11-16T13:41:50.435Z,100522.66
2022-11-16T13:44:17.722Z,100533.38
2022-11-16T13:46:55.870Z,100522.50
2022-11-16T13:49:36.673Z,100521.47
2022-11-16T13:52:22.596Z,100522.66
2022-11-16T13:54:53.063Z,100525.38
2022-11-16T13:57:31.255Z,100511.81
2022-11-16T14:00:00.691Z,100514.72
2022-11-16T14:02:39.304Z,100518.28
2022-11-16T14:05:26.092Z,100512.00
2022-11-16T14:07:52.473Z,100512.00
2022-11-16T14:10:39.132Z,100508.25
2022-11-16T14:13:06.345Z,100506.38
2022-11-16T14:15:34.496Z,100509.94
2022-11-16T14:18:02.322Z,100505.34
2022-11-16T14:20:38.136Z,100508.75
2022-11-16T14:23:04.473Z,100510.44
2022-11-16T14:25:36.832Z,100515.84
2022-11-16T14:28:23.457Z,100508.56
2022-11-16T14:31:13.240Z,100504.84
2022-11-16T14:33:39.621Z,100514.19
2022-11-16T14:36:07.613Z,100511.28
2022-11-16T14:38:35.234Z,100506.69
2022-11-16T14:41:02.967Z,100507.38
2022-11-16T14:43:33.106Z,100504.47
2022-11-16T14:46:07.370Z,100517.19
2022-11-16T14:48:34.976Z,100506.31
2022-11-16T14:51:13.171Z,100490.03
2022-11-16T14:53:41.669Z,100496.31
2022-11-16T14:56:09.851Z,100498.03
2022-11-16T14:58:36.549Z,100500.75
2022-11-16T15:01:04.209Z,100505.28
2022-11-16T15:03:34.419Z,100502.44
2022-11-16T15:06:01.963Z,100495.16
2022-11-16T15:08:32.623Z,100495.16
2022-11-16T15:10:59.131Z,100496.84
2022-11-16T15:13:25.642Z,100487.84
2022-11-16T15:16:08.234Z,100491.59
2022-11-16T15:18:34.618Z,100490.72
2022-11-16T15:21:00.986Z,100488.88
2022-11-16T15:23:30.629Z,100495.47
2022-11-16T15:26:00.077Z,100499.75
2022-11-16T15:28:28.653Z,100506.16
2022-11-16T15:30:57.020Z,100491.72
2022-11-16T15:33:29.630Z,100501.75
2022-11-16T15:35:56.512Z,100504.47
2022-11-16T15:38:24.264Z,100500.25
2022-11-16T15:40:52.509Z,100493.97
2022-11-16T15:43:19.951Z,100499.56
2022-11-16T15:45:46.810Z,100498.53
2022-11-16T15:48:17.764Z,100497.69
2022-11-16T15:51:04.863Z,100499.56
2022-11-16T15:53:37.048Z,100496.00
2022-11-16T15:56:06.162Z,100505.00
2022-11-16T15:58:36.245Z,100495.38
2022-11-16T16:01:02.885Z,100507.22
2022-11-16T16:03:31.768Z,100509.78
2022-11-16T16:05:58.573Z,100509.94
2022-11-16T16:08:28.030Z,100508.94
2022-11-16T16:11:10.554Z,100514.38
2022-11-16T16:13:41.702Z,100503.50
2022-11-16T16:16:11.119Z,100515.00
2022-11-16T16:18:44.690Z,100508.75
2022-11-16T16:21:12.430Z,100512.31
2022-11-16T16:23:52.072Z,100511.28
2022-11-16T16:26:18.671Z,100500.41
2022-11-16T16:28:45.551Z,100491.44
2022-11-16T16:31:12.381Z,100496.00
2022-11-16T16:33:38.918Z,100503.97
2022-11-16T16:36:05.626Z,100502.13
2022-11-16T16:38:31.994Z,100500.91
2022-11-16T16:41:02.565Z,100497.16
2022-11-16T16:43:29.251Z,100502.59
2022-11-16T16:45:55.673Z,100499.03
2022-11-16T16:48:22.131Z,100505.16
2022-11-16T16:50:48.484Z,100504.28
2022-11-16T16:53:15.051Z,100495.31
2022-11-16T16:55:42.811Z,100497.03
2022-11-16T16:58:12.489Z,100505.16
2022-11-16T17:00:39.045Z,100492.44
2022-11-16T17:03:05.396Z,100498.50
2022-11-16T17:05:33.905Z,100501.22
2022-11-16T17:08:00.821Z,100493.09
2022-11-16T17:10:27.191Z,100505.66
2022-11-16T17:12:54.094Z,100510.91
2022-11-16T17:15:20.444Z,100492.72
2022-11-16T17:17:46.906Z,100498.16
2022-11-16T17:20:13.443Z,100493.94
2022-11-16T17:22:41.798Z,100503.09
2022-11-16T17:25:08.676Z,100501.41
2022-11-16T17:27:35.042Z,100497.16
2022-11-16T17:30:01.444Z,100509.56
2022-11-16T17:32:27.776Z,100503.09
2022-11-16T17:34:54.150Z,100503.09
2022-11-16T17:37:20.535Z,100507.69
2022-11-16T17:39:46.900Z,100505.16
2022-11-16T17:42:13.246Z,100500.75
2022-11-16T17:44:39.613Z,100503.44
2022-11-16T17:47:07.408Z,100496.16
2022-11-16T17:49:33.780Z,100494.44
2022-11-16T17:52:01.308Z,100498.88
2022-11-16T17:54:27.685Z,100492.75
2022-11-16T17:56:54.122Z,100495.31
2022-11-16T17:59:22.780Z,100507.16
2022-11-16T18:01:52.849Z,100504.66
2022-11-16T18:04:19.270Z,100515.31
2022-11-16T18:06:45.741Z,100505.50
2022-11-16T18:09:12.172Z,100513.81
2022-11-16T18:11:39.755Z,100513.63
2022-11-16T18:14:06.191Z,100515.31
2022-11-16T18:16:34.688Z,100507.56
2022-11-16T18:19:02.348Z,100522.97
2022-11-16T18:21:29.375Z,100509.41
2022-11-16T18:23:55.850Z,100508.41
2022-11-16T18:26:23.714Z,100515.00
2022-11-16T18:28:51.009Z,100517.53
2022-11-16T18:31:18.488Z,100520.25
2022-11-16T18:33:44.918Z,100518.41
2022-11-16T18:36:12.277Z,100519.25
2022-11-16T18:38:38.900Z,100512.97
2022-11-16T18:41:11.529Z,100510.28
2022-11-16T18:43:41.698Z,100512.09
2022-11-16T18:46:08.400Z,100519.25
2022-11-16T18:48:34.745Z,100510.06
2022-11-16T18:51:02.117Z,100523.66
2022-11-16T18:53:29.230Z,100525.16
2022-11-16T18:55:58.129Z,100535.34
2022-11-16T18:58:49.384Z,100532.63
2022-11-16T19:01:13.528Z,100535.53
2022-11-16T19:03:40.157Z,100534.50
2022-11-16T19:06:10.173Z,100535.53
2022-11-16T19:08:37.469Z,100520.09
2022-11-16T19:11:14.581Z,100514.81
2022-11-16T19:13:41.699Z,100508.19
2022-11-16T19:16:08.801Z,100504.66
2022-11-16T19:18:35.777Z,100510.72
2022-11-16T19:21:03.139Z,100506.53
2022-11-16T19:23:29.517Z,100509.88
2022-11-16T19:25:59.657Z,100515.69
2022-11-16T19:28:26.045Z,100514.66
2022-11-16T19:30:52.447Z,100513.63
2022-11-16T19:33:18.789Z,100524.69
2022-11-16T19:35:45.191Z,100531.78
2022-11-16T19:38:11.617Z,100531.09
2022-11-16T19:40:39.470Z,100530.47
2022-11-16T19:43:06.091Z,100529.63
2022-11-16T19:45:32.445Z,100531.50
2022-11-16T19:47:58.810Z,100525.22
2022-11-16T19:50:25.244Z,100527.06
2022-11-16T19:52:51.748Z,100530.66
2022-11-16T19:55:18.150Z,100538.78
2022-11-16T19:57:44.569Z,100537.91
2022-11-16T20:00:11.283Z,100533.38
2022-11-16T20:02:38.667Z,100542.34
2022-11-16T20:05:05.265Z,100540.47
2022-11-16T20:07:31.800Z,100539.44
2022-11-16T20:09:58.442Z,100540.63
2022-11-16T20:12:24.858Z,100544.38
2022-11-16T20:14:51.270Z,100547.78
2022-11-16T20:17:17.633Z,100549.81
2022-11-16T20:19:43.975Z,100554.41
2022-11-16T20:22:10.925Z,100554.19
2022-11-16T20:24:37.353Z,100565.25
2022-11-16T20:27:03.739Z,100566.09
2022-11-16T20:29:30.113Z,100562.34
2022-11-16T20:31:56.480Z,100567.97
2022-11-16T20:34:22.943Z,100563.72
2022-11-16T20:36:50.878Z,100564.41
2022-11-16T20:39:19.188Z,100555.44
2022-11-16T20:41:45.987Z,100548.13
2022-11-16T20:44:22.280Z,100561.69
2022-11-16T20:46:50.602Z,100566.44
2022-11-16T20:49:16.968Z,100564.75
2022-11-16T20:51:43.341Z,100559.16
2022-11-16T20:54:09.732Z,100563.91
2022-11-16T20:56:36.152Z,100563.06
2022-11-16T20:59:02.562Z,100561.38
2022-11-16T21:01:31.757Z,100560.56
2022-11-16T21:03:59.407Z,100569.69
2022-11-16T21:06:26.285Z,100574.13
2022-11-16T21:08:53.112Z,100571.22
2022-11-16T21:11:21.285Z,100575.59
2022-11-16T21:14:06.503Z,100570.19
2022-11-16T21:16:33.833Z,100574.59
2022-11-16T21:19:00.790Z,100562.22
2022-11-16T21:21:27.228Z,100556.81
2022-11-16T21:23:54.934Z,100555.28
2022-11-16T21:26:22.648Z,100563.25
2022-11-16T21:28:49.191Z,100565.78
2022-11-16T21:31:17.683Z,100556.81
2022-11-16T21:33:44.627Z,100550.53
2022-11-16T21:36:12.402Z,100561.19
2022-11-16T21:38:38.960Z,100571.72
2022-11-16T21:41:06.387Z,100564.91
2022-11-16T21:43:40.258Z,100570.97
2022-11-16T21:46:07.972Z,100575.03
2022-11-16T21:48:34.563Z,100578.47
2022-11-16T21:51:02.378Z,100573.03
2022-11-16T21:53:28.914Z,100571.31
2022-11-16T21:55:55.409Z,100584.75
2022-11-16T21:58:21.844Z,100569.59
2022-11-16T22:00:48.497Z,100581.50
2022-11-16T22:03:15.161Z,100570.81
2022-11-16T22:05:59.999Z,100567.59
2022-11-16T22:08:26.475Z,100582.88
2022-11-16T22:10:53.168Z,100593.03
2022-11-16T22:13:20.176Z,100592.88
2022-11-16T22:15:46.681Z,100581.19
2022-11-16T22:18:13.533Z,100584.91
2022-11-16T22:20:40.063Z,100574.03
2022-11-16T22:23:06.439Z,100578.78
2022-11-16T22:25:33.014Z,100571.19
2022-11-16T22:28:19.827Z,100577.63
2022-11-16T22:30:51.228Z,100583.06
2022-11-16T22:33:18.273Z,100579.31
2022-11-16T22:35:46.712Z,100578.13
2022-11-16T22:38:13.183Z,100580.84
2022-11-16T22:40:39.631Z,100580.84
2022-11-16T22:43:06.131Z,100584.22
2022-11-16T22:45:32.554Z,100589.44
2022-11-16T22:47:59.019Z,100579.63
2022-11-16T22:50:25.507Z,100580.66
2022-11-16T22:52:51.893Z,100590.66
2022-11-16T22:55:18.343Z,100579.81
2022-11-16T22:57:44.818Z,100580.84
2022-11-16T23:00:12.233Z,100579.81
2022-11-16T23:02:38.652Z,100572.69
2022-11-16T23:05:05.270Z,100580.66
2022-11-16T23:07:31.937Z,100578.59
2022-11-16T23:09:58.471Z,100575.75
2022-11-16T23:12:43.502Z,100566.72
2022-11-16T23:15:30.851Z,100562.75
2022-11-16T23:17:57.699Z,100554.22
2022-11-16T23:20:42.528Z,100555.66
2022-11-16T23:23:37.536Z,100546.22
2022-11-16T23:26:24.117Z,100557.41
2022-11-16T23:28:50.530Z,100559.59
2022-11-16T23:31:16.996Z,100560.59
2022-11-16T23:33:46.381Z,100557.88
2022-11-16T23:36:13.010Z,100553.66
2022-11-16T23:38:39.482Z,100552.94
2022-11-16T23:41:24.826Z,100543.44
2022-11-16T23:44:00.201Z,100537.69
2022-11-16T23:46:30.773Z,100536.66
2022-11-16T23:48:57.659Z,100531.41
2022-11-16T23:51:24.562Z,100527.66
2022-11-16T23:53:51.774Z,100524.94
2022-11-16T23:56:18.697Z,100520.56
2022-11-16T23:58:45.170Z,100517.84
